Terminal Aerodrome Forecast
Issued by NWS

Current Version | Previous Version | Graphics & Text | Print | Product List | Glossary On
Versions: 1 2 3 4 5 6 7 8 9 10 11 12 13 14 15 16 17 18 19 20 21 22 23 24 25
000
FTUS41 KILN 211729
TAFLUK
TAF
KLUK 211729Z 2118/2218 21004KT P6SM SCT050 OVC150
     FM212100 19004KT P6SM VCSH SCT040 OVC090
      TEMPO 2121/2124 5SM -SHRA OVC035
     FM220000 19004KT P6SM VCSH OVC035
     FM220600 19004KT 5SM BR OVC020
     FM220800 00000KT 3SM BR OVC012
     FM221200 VRB03KT 2SM BR OVC009
     FM221500 19004KT P6SM OVC010=

USA.gov is the U.S. government's official web portal to all federal, state and local government web resources and services.